This is the latest recevied weather packets stored in our database for station/object WD7CGF. If no packets are shown the sender has not sent any weather packets the latest 10 day(s).
| Time | Temp. | Humidity | Pressure | Rain* | Wind** | Luminosity | Snow |
|---|---|---|---|---|---|---|---|
| 1788026912 | 16.67° C | 56% | 1012.9 hPa | 0 mm | - | - | - |
| 1788026329 | 16.67° C | 56% | 1012.9 hPa | 0 mm | - | - | - |
| 1788025723 | 16.67° C | 57% | 1012.9 hPa | 0 mm | - | - | - |
| 1788025117 | 15.56° C | 57% | 1013 hPa | 0 mm | - | - | - |
| 1788024511 | 15.56° C | 61% | 1013 hPa | 0 mm | - | - | - |
| 1788023925 | 15.56° C | 59% | 1013 hPa | 0 mm | - | - | - |
| 1788023319 | 16.11° C | 58% | 1012.4 hPa | 0 mm | - | - | - |
| 1788022713 | 17.22° C | 58% | 1011.8 hPa | 0 mm | - | - | - |
| 1788022126 | 17.22° C | 60% | 1011.8 hPa | 0 mm | - | - | - |
| 1788021524 | 15.56° C | 63% | 1012 hPa | 0 mm | - | - | - |
| 1788020916 | 15.56° C | 63% | 1012 hPa | 0 mm | - | - | - |
| 1788020329 | 15.56° C | 60% | 1012 hPa | 0 mm | - | - | - |
| 1788019724 | 17.22° C | 58% | 1011.7 hPa | 0 mm | - | - | - |
| 1788019118 | 17.22° C | 59% | 1011.9 hPa | 0 mm | - | - | - |
| 1788018513 | 16.11° C | 58% | 1011.9 hPa | 0 mm | - | - | - |
| 1788017929 | 16.11° C | 58% | 1012.2 hPa | 0 mm | - | - | - |
| 1788017323 | 15.56° C | 60% | 1012.3 hPa | 0 mm | - | - | - |
| 1788016720 | 15.56° C | 60% | 1012.3 hPa | 0 mm | - | - | - |
| 1788016114 | 15° C | 61% | 1011.9 hPa | 0 mm | - | - | - |
| 1788015527 | 14.44° C | 62% | 1011.8 hPa | 0 mm | - | - | - |
| 1788014920 | 13.89° C | 64% | 1011.8 hPa | 0 mm | - | - | - |
| 1788014315 | 13.33° C | 67% | 1012 hPa | 0 mm | - | - | - |
| 1788013711 | 12.22° C | 70% | 1012.1 hPa | 0 mm | - | - | - |
| 1788013125 | 11.67° C | 72% | 1012.1 hPa | 0 mm | - | - | - |
| 1788012522 | 11.11° C | 72% | 1011.9 hPa | 0 mm | - | - | - |
* Rain latest hour (hover to see other rain measurements)
** Current wind speed in m/s (hover to see current wind gust speed)